sensor_id;sensor_type;location;lat;lon;timestamp;P1;durP1;ratioP1;P2;durP2;ratioP2
83707;SDS011;73692;49.562;11.144;2023-12-20T00:03:17;15.53;;;8.33;;
83707;SDS011;73692;49.562;11.144;2023-12-20T00:08:09;14.63;;;6.78;;
83707;SDS011;73692;49.562;11.144;2023-12-20T00:10:34;9.75;;;6.53;;
83707;SDS011;73692;49.562;11.144;2023-12-20T00:15:25;12.50;;;6.93;;
83707;SDS011;73692;49.562;11.144;2023-12-20T00:20:15;13.67;;;7.20;;
83707;SDS011;73692;49.562;11.144;2023-12-20T00:25:06;12.13;;;6.30;;
83707;SDS011;73692;49.562;11.144;2023-12-20T00:29:57;12.50;;;6.97;;
83707;SDS011;73692;49.562;11.144;2023-12-20T00:34:47;12.87;;;6.97;;
83707;SDS011;73692;49.562;11.144;2023-12-20T00:39:38;15.83;;;7.20;;
83707;SDS011;73692;49.562;11.144;2023-12-20T00:42:03;10.82;;;6.70;;
83707;SDS011;73692;49.562;11.144;2023-12-20T00:44:28;10.93;;;6.53;;
83707;SDS011;73692;49.562;11.144;2023-12-20T00:46:54;12.20;;;6.43;;
83707;SDS011;73692;49.562;11.144;2023-12-20T00:51:44;10.70;;;5.53;;
83707;SDS011;73692;49.562;11.144;2023-12-20T00:54:10;9.20;;;5.63;;
83707;SDS011;73692;49.562;11.144;2023-12-20T00:59:00;11.73;;;4.97;;
83707;SDS011;73692;49.562;11.144;2023-12-20T01:01:25;9.98;;;5.03;;
83707;SDS011;73692;49.562;11.144;2023-12-20T01:06:16;7.25;;;4.68;;
83707;SDS011;73692;49.562;11.144;2023-12-20T01:08:42;10.40;;;4.97;;
83707;SDS011;73692;49.562;11.144;2023-12-20T01:13:32;5.80;;;3.77;;
83707;SDS011;73692;49.562;11.144;2023-12-20T01:18:23;6.93;;;3.73;;
83707;SDS011;73692;49.562;11.144;2023-12-20T01:20:48;5.47;;;3.10;;
83707;SDS011;73692;49.562;11.144;2023-12-20T01:23:13;7.88;;;3.40;;
83707;SDS011;73692;49.562;11.144;2023-12-20T01:28:04;4.57;;;3.07;;
83707;SDS011;73692;49.562;11.144;2023-12-20T01:32:54;4.20;;;2.53;;
83707;SDS011;73692;49.562;11.144;2023-12-20T01:35:20;7.38;;;2.40;;
83707;SDS011;73692;49.562;11.144;2023-12-20T01:40:10;8.27;;;2.80;;
83707;SDS011;73692;49.562;11.144;2023-12-20T01:45:01;5.03;;;2.33;;
83707;SDS011;73692;49.562;11.144;2023-12-20T01:49:52;4.60;;;2.23;;
83707;SDS011;73692;49.562;11.144;2023-12-20T01:52:18;5.05;;;2.50;;
83707;SDS011;73692;49.562;11.144;2023-12-20T01:54:44;4.10;;;2.22;;
83707;SDS011;73692;49.562;11.144;2023-12-20T01:57:09;3.43;;;1.93;;
83707;SDS011;73692;49.562;11.144;2023-12-20T01:59:35;3.90;;;2.47;;
83707;SDS011;73692;49.562;11.144;2023-12-20T02:02:00;4.45;;;2.50;;
83707;SDS011;73692;49.562;11.144;2023-12-20T02:04:26;4.10;;;2.33;;
83707;SDS011;73692;49.562;11.144;2023-12-20T02:06:52;3.28;;;1.90;;
83707;SDS011;73692;49.562;11.144;2023-12-20T02:11:42;6.63;;;2.50;;
83707;SDS011;73692;49.562;11.144;2023-12-20T02:14:08;3.58;;;2.40;;
83707;SDS011;73692;49.562;11.144;2023-12-20T02:18:58;7.20;;;2.63;;
83707;SDS011;73692;49.562;11.144;2023-12-20T02:24:01;5.10;;;2.13;;
83707;SDS011;73692;49.562;11.144;2023-12-20T02:26:26;4.03;;;2.70;;
83707;SDS011;73692;49.562;11.144;2023-12-20T02:28:52;3.60;;;2.00;;
83707;SDS011;73692;49.562;11.144;2023-12-20T02:31:20;3.78;;;1.88;;
83707;SDS011;73692;49.562;11.144;2023-12-20T02:33:46;4.13;;;2.05;;
83707;SDS011;73692;49.562;11.144;2023-12-20T02:36:11;3.33;;;1.73;;
83707;SDS011;73692;49.562;11.144;2023-12-20T02:38:37;4.32;;;2.13;;
83707;SDS011;73692;49.562;11.144;2023-12-20T02:41:02;4.03;;;1.90;;
83707;SDS011;73692;49.562;11.144;2023-12-20T02:43:28;2.50;;;1.50;;
83707;SDS011;73692;49.562;11.144;2023-12-20T02:48:18;3.20;;;1.80;;
83707;SDS011;73692;49.562;11.144;2023-12-20T02:50:44;2.70;;;1.47;;
83707;SDS011;73692;49.562;11.144;2023-12-20T02:53:10;3.03;;;1.73;;
83707;SDS011;73692;49.562;11.144;2023-12-20T02:58:01;2.40;;;1.43;;
83707;SDS011;73692;49.562;11.144;2023-12-20T03:00:26;3.05;;;1.50;;
83707;SDS011;73692;49.562;11.144;2023-12-20T03:05:17;2.23;;;1.27;;
83707;SDS011;73692;49.562;11.144;2023-12-20T03:10:07;4.20;;;1.40;;
83707;SDS011;73692;49.562;11.144;2023-12-20T03:12:34;3.70;;;1.42;;
83707;SDS011;73692;49.562;11.144;2023-12-20T03:17:24;2.77;;;1.70;;
83707;SDS011;73692;49.562;11.144;2023-12-20T03:19:50;3.03;;;1.60;;
83707;SDS011;73692;49.562;11.144;2023-12-20T03:22:15;3.03;;;1.50;;
83707;SDS011;73692;49.562;11.144;2023-12-20T03:24:40;2.93;;;1.43;;
83707;SDS011;73692;49.562;11.144;2023-12-20T03:27:06;2.47;;;1.53;;
83707;SDS011;73692;49.562;11.144;2023-12-20T03:29:31;3.37;;;1.53;;
83707;SDS011;73692;49.562;11.144;2023-12-20T03:31:56;2.93;;;1.60;;
83707;SDS011;73692;49.562;11.144;2023-12-20T03:34:21;2.40;;;1.37;;
83707;SDS011;73692;49.562;11.144;2023-12-20T03:36:47;2.45;;;1.50;;
83707;SDS011;73692;49.562;11.144;2023-12-20T03:39:12;3.53;;;1.60;;
83707;SDS011;73692;49.562;11.144;2023-12-20T03:41:38;2.55;;;1.23;;
83707;SDS011;73692;49.562;11.144;2023-12-20T03:44:03;3.20;;;1.90;;
83707;SDS011;73692;49.562;11.144;2023-12-20T03:46:29;2.72;;;1.52;;
83707;SDS011;73692;49.562;11.144;2023-12-20T03:48:54;5.57;;;1.50;;
83707;SDS011;73692;49.562;11.144;2023-12-20T03:51:19;2.30;;;1.27;;
83707;SDS011;73692;49.562;11.144;2023-12-20T03:53:44;2.60;;;1.20;;
83707;SDS011;73692;49.562;11.144;2023-12-20T03:56:10;2.23;;;1.27;;
83707;SDS011;73692;49.562;11.144;2023-12-20T03:58:35;2.58;;;1.17;;
83707;SDS011;73692;49.562;11.144;2023-12-20T04:03:26;2.08;;;1.10;;
83707;SDS011;73692;49.562;11.144;2023-12-20T04:08:16;2.10;;;1.20;;
83707;SDS011;73692;49.562;11.144;2023-12-20T04:10:42;2.72;;;1.38;;
83707;SDS011;73692;49.562;11.144;2023-12-20T04:13:07;3.53;;;1.30;;
83707;SDS011;73692;49.562;11.144;2023-12-20T04:15:32;2.17;;;0.90;;
83707;SDS011;73692;49.562;11.144;2023-12-20T04:17:58;2.35;;;1.35;;
83707;SDS011;73692;49.562;11.144;2023-12-20T04:20:23;2.50;;;1.30;;
83707;SDS011;73692;49.562;11.144;2023-12-20T04:22:48;2.17;;;1.20;;
83707;SDS011;73692;49.562;11.144;2023-12-20T04:25:13;2.53;;;1.33;;
83707;SDS011;73692;49.562;11.144;2023-12-20T04:27:39;2.00;;;1.10;;
83707;SDS011;73692;49.562;11.144;2023-12-20T04:30:04;3.20;;;1.60;;
83707;SDS011;73692;49.562;11.144;2023-12-20T04:32:30;2.47;;;1.10;;
83707;SDS011;73692;49.562;11.144;2023-12-20T04:37:21;2.57;;;1.37;;
83707;SDS011;73692;49.562;11.144;2023-12-20T04:39:47;1.95;;;1.17;;
83707;SDS011;73692;49.562;11.144;2023-12-20T04:44:37;2.43;;;1.60;;
83707;SDS011;73692;49.562;11.144;2023-12-20T04:47:02;2.17;;;1.20;;
83707;SDS011;73692;49.562;11.144;2023-12-20T04:49:28;3.20;;;1.70;;
83707;SDS011;73692;49.562;11.144;2023-12-20T04:51:53;3.45;;;1.73;;
83707;SDS011;73692;49.562;11.144;2023-12-20T04:56:44;2.53;;;1.07;;
83707;SDS011;73692;49.562;11.144;2023-12-20T04:59:09;2.43;;;1.17;;
83707;SDS011;73692;49.562;11.144;2023-12-20T05:01:34;2.67;;;1.40;;
83707;SDS011;73692;49.562;11.144;2023-12-20T05:06:25;3.27;;;1.20;;
83707;SDS011;73692;49.562;11.144;2023-12-20T05:11:15;2.37;;;1.30;;
83707;SDS011;73692;49.562;11.144;2023-12-20T05:13:41;2.92;;;1.60;;
83707;SDS011;73692;49.562;11.144;2023-12-20T05:16:06;2.65;;;1.50;;
83707;SDS011;73692;49.562;11.144;2023-12-20T05:20:57;2.80;;;1.47;;
83707;SDS011;73692;49.562;11.144;2023-12-20T05:25:47;2.90;;;1.95;;
83707;SDS011;73692;49.562;11.144;2023-12-20T05:28:13;3.90;;;1.65;;
83707;SDS011;73692;49.562;11.144;2023-12-20T05:30:39;3.33;;;1.75;;
83707;SDS011;73692;49.562;11.144;2023-12-20T05:33:04;2.60;;;1.30;;
83707;SDS011;73692;49.562;11.144;2023-12-20T05:35:29;2.93;;;1.63;;
83707;SDS011;73692;49.562;11.144;2023-12-20T05:37:55;3.90;;;2.33;;
83707;SDS011;73692;49.562;11.144;2023-12-20T05:40:20;3.33;;;1.90;;
83707;SDS011;73692;49.562;11.144;2023-12-20T05:42:45;3.03;;;1.83;;
83707;SDS011;73692;49.562;11.144;2023-12-20T05:45:11;3.20;;;1.92;;
83707;SDS011;73692;49.562;11.144;2023-12-20T05:47:36;3.92;;;2.40;;
83707;SDS011;73692;49.562;11.144;2023-12-20T05:50:01;4.22;;;2.30;;
83707;SDS011;73692;49.562;11.144;2023-12-20T05:52:27;2.97;;;2.08;;
83707;SDS011;73692;49.562;11.144;2023-12-20T05:54:52;3.15;;;1.70;;
83707;SDS011;73692;49.562;11.144;2023-12-20T05:57:17;4.05;;;1.85;;
83707;SDS011;73692;49.562;11.144;2023-12-20T05:59:43;3.97;;;2.07;;
83707;SDS011;73692;49.562;11.144;2023-12-20T06:02:08;3.10;;;1.92;;
83707;SDS011;73692;49.562;11.144;2023-12-20T06:04:33;3.17;;;2.13;;
83707;SDS011;73692;49.562;11.144;2023-12-20T06:06:59;3.50;;;2.03;;
83707;SDS011;73692;49.562;11.144;2023-12-20T06:09:24;4.10;;;2.50;;
83707;SDS011;73692;49.562;11.144;2023-12-20T06:11:50;4.38;;;2.63;;
83707;SDS011;73692;49.562;11.144;2023-12-20T06:14:16;3.58;;;2.17;;
83707;SDS011;73692;49.562;11.144;2023-12-20T06:16:41;4.53;;;2.92;;
83707;SDS011;73692;49.562;11.144;2023-12-20T06:19:06;4.60;;;2.60;;
83707;SDS011;73692;49.562;11.144;2023-12-20T06:21:32;4.40;;;2.40;;
83707;SDS011;73692;49.562;11.144;2023-12-20T06:23:58;3.90;;;2.60;;
83707;SDS011;73692;49.562;11.144;2023-12-20T06:26:24;5.20;;;2.92;;
83707;SDS011;73692;49.562;11.144;2023-12-20T06:28:49;4.75;;;2.15;;
83707;SDS011;73692;49.562;11.144;2023-12-20T06:31:15;4.73;;;2.90;;
83707;SDS011;73692;49.562;11.144;2023-12-20T06:33:40;4.97;;;3.17;;
83707;SDS011;73692;49.562;11.144;2023-12-20T06:36:06;5.32;;;3.13;;
83707;SDS011;73692;49.562;11.144;2023-12-20T06:38:31;5.20;;;3.28;;
83707;SDS011;73692;49.562;11.144;2023-12-20T06:40:56;4.78;;;3.45;;
83707;SDS011;73692;49.562;11.144;2023-12-20T06:43:23;5.55;;;3.47;;
83707;SDS011;73692;49.562;11.144;2023-12-20T06:45:48;5.22;;;3.10;;
83707;SDS011;73692;49.562;11.144;2023-12-20T06:50:39;6.07;;;3.53;;
83707;SDS011;73692;49.562;11.144;2023-12-20T06:53:05;6.13;;;4.07;;
83707;SDS011;73692;49.562;11.144;2023-12-20T06:55:32;4.72;;;2.88;;
83707;SDS011;73692;49.562;11.144;2023-12-20T06:57:58;5.70;;;3.35;;
83707;SDS011;73692;49.562;11.144;2023-12-20T07:00:23;5.60;;;3.47;;
83707;SDS011;73692;49.562;11.144;2023-12-20T07:02:48;5.70;;;3.55;;
83707;SDS011;73692;49.562;11.144;2023-12-20T07:05:16;5.60;;;4.05;;
83707;SDS011;73692;49.562;11.144;2023-12-20T07:07:42;5.70;;;3.47;;
83707;SDS011;73692;49.562;11.144;2023-12-20T07:10:07;5.27;;;3.53;;
83707;SDS011;73692;49.562;11.144;2023-12-20T07:12:33;5.95;;;3.92;;
83707;SDS011;73692;49.562;11.144;2023-12-20T07:17:23;5.60;;;3.30;;
83707;SDS011;73692;49.562;11.144;2023-12-20T07:19:49;5.68;;;3.97;;
83707;SDS011;73692;49.562;11.144;2023-12-20T07:24:39;4.83;;;3.30;;
83707;SDS011;73692;49.562;11.144;2023-12-20T07:27:04;5.80;;;3.33;;
83707;SDS011;73692;49.562;11.144;2023-12-20T07:29:30;6.27;;;3.53;;
83707;SDS011;73692;49.562;11.144;2023-12-20T07:31:55;5.38;;;3.67;;
83707;SDS011;73692;49.562;11.144;2023-12-20T07:34:20;6.40;;;3.43;;
83707;SDS011;73692;49.562;11.144;2023-12-20T07:36:46;7.28;;;4.78;;
83707;SDS011;73692;49.562;11.144;2023-12-20T07:39:12;8.55;;;3.95;;
83707;SDS011;73692;49.562;11.144;2023-12-20T07:41:37;7.15;;;4.15;;
83707;SDS011;73692;49.562;11.144;2023-12-20T07:44:04;9.13;;;4.32;;
83707;SDS011;73692;49.562;11.144;2023-12-20T07:46:29;7.45;;;4.70;;
83707;SDS011;73692;49.562;11.144;2023-12-20T07:48:55;8.77;;;4.35;;
83707;SDS011;73692;49.562;11.144;2023-12-20T07:51:20;6.88;;;4.50;;
83707;SDS011;73692;49.562;11.144;2023-12-20T07:53:46;7.45;;;4.82;;
83707;SDS011;73692;49.562;11.144;2023-12-20T07:56:15;7.57;;;5.07;;
83707;SDS011;73692;49.562;11.144;2023-12-20T07:58:41;7.28;;;4.05;;
83707;SDS011;73692;49.562;11.144;2023-12-20T08:01:06;6.90;;;4.15;;
83707;SDS011;73692;49.562;11.144;2023-12-20T08:03:31;6.53;;;4.70;;
83707;SDS011;73692;49.562;11.144;2023-12-20T08:05:57;6.93;;;4.80;;
83707;SDS011;73692;49.562;11.144;2023-12-20T08:08:24;9.27;;;4.47;;
83707;SDS011;73692;49.562;11.144;2023-12-20T08:13:15;7.23;;;4.40;;
83707;SDS011;73692;49.562;11.144;2023-12-20T08:15:40;7.85;;;5.22;;
83707;SDS011;73692;49.562;11.144;2023-12-20T08:18:06;6.65;;;4.43;;
83707;SDS011;73692;49.562;11.144;2023-12-20T08:20:31;9.27;;;5.00;;
83707;SDS011;73692;49.562;11.144;2023-12-20T08:22:56;7.43;;;4.17;;
83707;SDS011;73692;49.562;11.144;2023-12-20T08:25:22;10.20;;;5.20;;
83707;SDS011;73692;49.562;11.144;2023-12-20T08:27:47;5.53;;;3.30;;
83707;SDS011;73692;49.562;11.144;2023-12-20T08:30:12;6.10;;;3.60;;
83707;SDS011;73692;49.562;11.144;2023-12-20T08:32:38;4.47;;;2.80;;
83707;SDS011;73692;49.562;11.144;2023-12-20T08:35:03;3.85;;;2.30;;
83707;SDS011;73692;49.562;11.144;2023-12-20T08:37:29;5.25;;;2.75;;
83707;SDS011;73692;49.562;11.144;2023-12-20T08:39:55;5.55;;;2.80;;
83707;SDS011;73692;49.562;11.144;2023-12-20T08:44:46;6.23;;;3.43;;
83707;SDS011;73692;49.562;11.144;2023-12-20T08:47:11;6.15;;;3.33;;
83707;SDS011;73692;49.562;11.144;2023-12-20T08:49:38;6.13;;;3.72;;
83707;SDS011;73692;49.562;11.144;2023-12-20T08:52:04;6.05;;;3.72;;
83707;SDS011;73692;49.562;11.144;2023-12-20T08:54:29;5.85;;;3.97;;
83707;SDS011;73692;49.562;11.144;2023-12-20T08:56:54;7.22;;;4.05;;
83707;SDS011;73692;49.562;11.144;2023-12-20T08:59:20;5.77;;;3.60;;
83707;SDS011;73692;49.562;11.144;2023-12-20T09:01:45;5.55;;;3.65;;
83707;SDS011;73692;49.562;11.144;2023-12-20T09:06:36;5.33;;;3.23;;
83707;SDS011;73692;49.562;11.144;2023-12-20T09:11:27;5.57;;;2.95;;
83707;SDS011;73692;49.562;11.144;2023-12-20T09:13:52;8.90;;;3.25;;
83707;SDS011;73692;49.562;11.144;2023-12-20T09:16:18;8.00;;;3.80;;
83707;SDS011;73692;49.562;11.144;2023-12-20T09:18:43;5.45;;;3.13;;
83707;SDS011;73692;49.562;11.144;2023-12-20T09:23:34;6.33;;;3.37;;
83707;SDS011;73692;49.562;11.144;2023-12-20T09:28:24;6.87;;;3.10;;
83707;SDS011;73692;49.562;11.144;2023-12-20T09:33:15;5.07;;;3.13;;
83707;SDS011;73692;49.562;11.144;2023-12-20T09:38:06;5.75;;;2.53;;
83707;SDS011;73692;49.562;11.144;2023-12-20T09:42:58;4.72;;;2.33;;
83707;SDS011;73692;49.562;11.144;2023-12-20T09:45:28;5.05;;;2.88;;
83707;SDS011;73692;49.562;11.144;2023-12-20T09:47:55;4.63;;;2.85;;
83707;SDS011;73692;49.562;11.144;2023-12-20T09:50:23;3.60;;;2.22;;
83707;SDS011;73692;49.562;11.144;2023-12-20T09:55:18;4.70;;;2.15;;
83707;SDS011;73692;49.562;11.144;2023-12-20T09:57:47;3.47;;;1.90;;
83707;SDS011;73692;49.562;11.144;2023-12-20T10:00:13;3.85;;;2.00;;
83707;SDS011;73692;49.562;11.144;2023-12-20T10:02:41;3.22;;;1.90;;
83707;SDS011;73692;49.562;11.144;2023-12-20T10:05:09;6.40;;;1.73;;
83707;SDS011;73692;49.562;11.144;2023-12-20T10:07:41;7.85;;;2.03;;
83707;SDS011;73692;49.562;11.144;2023-12-20T10:10:06;5.50;;;2.57;;
83707;SDS011;73692;49.562;11.144;2023-12-20T10:12:33;8.90;;;2.42;;
83707;SDS011;73692;49.562;11.144;2023-12-20T10:17:24;5.05;;;1.63;;
83707;SDS011;73692;49.562;11.144;2023-12-20T10:19:54;8.02;;;2.50;;
83707;SDS011;73692;49.562;11.144;2023-12-20T10:24:45;3.40;;;1.90;;
83707;SDS011;73692;49.562;11.144;2023-12-20T10:27:11;5.60;;;1.77;;
83707;SDS011;73692;49.562;11.144;2023-12-20T10:29:37;4.97;;;2.13;;
83707;SDS011;73692;49.562;11.144;2023-12-20T10:32:22;12.15;;;2.67;;
83707;SDS011;73692;49.562;11.144;2023-12-20T10:34:49;4.55;;;1.88;;
83707;SDS011;73692;49.562;11.144;2023-12-20T10:37:14;3.60;;;1.58;;
83707;SDS011;73692;49.562;11.144;2023-12-20T10:39:40;3.83;;;1.80;;
83707;SDS011;73692;49.562;11.144;2023-12-20T10:42:07;2.50;;;1.50;;
83707;SDS011;73692;49.562;11.144;2023-12-20T10:44:34;4.95;;;2.10;;
83707;SDS011;73692;49.562;11.144;2023-12-20T10:46:59;6.30;;;2.63;;
83707;SDS011;73692;49.562;11.144;2023-12-20T10:49:25;3.78;;;1.73;;
83707;SDS011;73692;49.562;11.144;2023-12-20T10:51:50;3.85;;;2.00;;
83707;SDS011;73692;49.562;11.144;2023-12-20T10:54:18;3.25;;;1.77;;
83707;SDS011;73692;49.562;11.144;2023-12-20T10:56:43;7.63;;;1.97;;
83707;SDS011;73692;49.562;11.144;2023-12-20T10:59:10;4.72;;;1.70;;
83707;SDS011;73692;49.562;11.144;2023-12-20T11:04:01;3.77;;;1.73;;
83707;SDS011;73692;49.562;11.144;2023-12-20T11:06:41;5.68;;;1.80;;
83707;SDS011;73692;49.562;11.144;2023-12-20T11:11:49;5.82;;;2.22;;
83707;SDS011;73692;49.562;11.144;2023-12-20T11:17:08;6.20;;;1.50;;
83707;SDS011;73692;49.562;11.144;2023-12-20T11:19:45;4.05;;;1.80;;
83707;SDS011;73692;49.562;11.144;2023-12-20T11:22:27;5.15;;;1.45;;
83707;SDS011;73692;49.562;11.144;2023-12-20T11:24:54;3.05;;;1.30;;
83707;SDS011;73692;49.562;11.144;2023-12-20T11:27:23;3.35;;;1.35;;
83707;SDS011;73692;49.562;11.144;2023-12-20T11:34:50;4.47;;;1.55;;
83707;SDS011;73692;49.562;11.144;2023-12-20T11:37:21;4.22;;;1.80;;
83707;SDS011;73692;49.562;11.144;2023-12-20T11:42:20;3.42;;;1.70;;
83707;SDS011;73692;49.562;11.144;2023-12-20T11:47:10;4.77;;;1.87;;
83707;SDS011;73692;49.562;11.144;2023-12-20T11:49:37;4.75;;;1.75;;
83707;SDS011;73692;49.562;11.144;2023-12-20T11:54:27;3.50;;;1.50;;
83707;SDS011;73692;49.562;11.144;2023-12-20T11:56:52;4.10;;;1.57;;
83707;SDS011;73692;49.562;11.144;2023-12-20T11:59:18;3.50;;;1.67;;
83707;SDS011;73692;49.562;11.144;2023-12-20T12:01:50;7.32;;;1.58;;
83707;SDS011;73692;49.562;11.144;2023-12-20T12:04:16;4.78;;;1.77;;
83707;SDS011;73692;49.562;11.144;2023-12-20T12:06:42;3.50;;;1.85;;
83707;SDS011;73692;49.562;11.144;2023-12-20T12:11:33;5.87;;;1.33;;
83707;SDS011;73692;49.562;11.144;2023-12-20T12:16:24;4.87;;;1.30;;
83707;SDS011;73692;49.562;11.144;2023-12-20T12:21:22;3.65;;;1.60;;
83707;SDS011;73692;49.562;11.144;2023-12-20T12:23:47;4.28;;;1.77;;
83707;SDS011;73692;49.562;11.144;2023-12-20T12:26:13;6.70;;;1.90;;
83707;SDS011;73692;49.562;11.144;2023-12-20T12:28:41;6.15;;;1.65;;
83707;SDS011;73692;49.562;11.144;2023-12-20T12:31:07;3.47;;;1.60;;
83707;SDS011;73692;49.562;11.144;2023-12-20T12:33:33;4.35;;;1.83;;
83707;SDS011;73692;49.562;11.144;2023-12-20T12:35:58;4.30;;;2.30;;
83707;SDS011;73692;49.562;11.144;2023-12-20T12:38:24;6.20;;;1.63;;
83707;SDS011;73692;49.562;11.144;2023-12-20T12:40:50;7.30;;;2.00;;
83707;SDS011;73692;49.562;11.144;2023-12-20T12:43:18;7.63;;;2.13;;
83707;SDS011;73692;49.562;11.144;2023-12-20T12:48:08;4.13;;;1.40;;
83707;SDS011;73692;49.562;11.144;2023-12-20T12:52:59;4.33;;;1.63;;
83707;SDS011;73692;49.562;11.144;2023-12-20T12:57:49;4.93;;;1.90;;
83707;SDS011;73692;49.562;11.144;2023-12-20T13:00:15;6.65;;;1.23;;
83707;SDS011;73692;49.562;11.144;2023-12-20T13:05:08;7.32;;;1.35;;
83707;SDS011;73692;49.562;11.144;2023-12-20T13:09:59;3.30;;;1.40;;
83707;SDS011;73692;49.562;11.144;2023-12-20T13:14:50;3.80;;;1.20;;
83707;SDS011;73692;49.562;11.144;2023-12-20T13:19:41;2.50;;;1.52;;
83707;SDS011;73692;49.562;11.144;2023-12-20T13:22:06;3.25;;;1.60;;
83707;SDS011;73692;49.562;11.144;2023-12-20T13:26:57;5.50;;;2.00;;
83707;SDS011;73692;49.562;11.144;2023-12-20T13:31:48;5.13;;;1.60;;
83707;SDS011;73692;49.562;11.144;2023-12-20T13:36:41;7.40;;;1.63;;
83707;SDS011;73692;49.562;11.144;2023-12-20T13:39:10;5.75;;;2.67;;
83707;SDS011;73692;49.562;11.144;2023-12-20T13:44:01;6.27;;;1.60;;
83707;SDS011;73692;49.562;11.144;2023-12-20T13:46:28;5.07;;;1.70;;
83707;SDS011;73692;49.562;11.144;2023-12-20T13:48:53;3.38;;;1.63;;
83707;SDS011;73692;49.562;11.144;2023-12-20T13:53:45;4.60;;;1.90;;
83707;SDS011;73692;49.562;11.144;2023-12-20T13:56:11;4.37;;;1.50;;
83707;SDS011;73692;49.562;11.144;2023-12-20T13:58:36;4.00;;;1.30;;
83707;SDS011;73692;49.562;11.144;2023-12-20T14:01:01;4.73;;;1.70;;
83707;SDS011;73692;49.562;11.144;2023-12-20T14:03:26;5.32;;;1.83;;
83707;SDS011;73692;49.562;11.144;2023-12-20T14:05:52;4.60;;;2.37;;
83707;SDS011;73692;49.562;11.144;2023-12-20T14:08:17;5.97;;;1.40;;
83707;SDS011;73692;49.562;11.144;2023-12-20T14:10:42;5.03;;;1.80;;
83707;SDS011;73692;49.562;11.144;2023-12-20T14:13:08;5.20;;;2.07;;
83707;SDS011;73692;49.562;11.144;2023-12-20T14:15:33;6.43;;;1.73;;
83707;SDS011;73692;49.562;11.144;2023-12-20T14:18:02;6.32;;;2.20;;
83707;SDS011;73692;49.562;11.144;2023-12-20T14:20:34;3.85;;;1.40;;
83707;SDS011;73692;49.562;11.144;2023-12-20T14:23:00;3.38;;;1.52;;
83707;SDS011;73692;49.562;11.144;2023-12-20T14:25:26;4.93;;;1.48;;
83707;SDS011;73692;49.562;11.144;2023-12-20T14:27:51;6.22;;;1.75;;
83707;SDS011;73692;49.562;11.144;2023-12-20T14:32:42;6.33;;;2.17;;
83707;SDS011;73692;49.562;11.144;2023-12-20T14:35:07;6.03;;;1.80;;
83707;SDS011;73692;49.562;11.144;2023-12-20T14:37:39;3.40;;;1.52;;
83707;SDS011;73692;49.562;11.144;2023-12-20T14:40:08;9.95;;;2.88;;
83707;SDS011;73692;49.562;11.144;2023-12-20T14:42:41;6.80;;;2.08;;
83707;SDS011;73692;49.562;11.144;2023-12-20T14:45:07;4.25;;;1.60;;
83707;SDS011;73692;49.562;11.144;2023-12-20T14:47:33;3.90;;;1.67;;
83707;SDS011;73692;49.562;11.144;2023-12-20T14:49:58;3.78;;;1.85;;
83707;SDS011;73692;49.562;11.144;2023-12-20T14:54:49;6.37;;;2.13;;
83707;SDS011;73692;49.562;11.144;2023-12-20T14:57:14;4.18;;;1.83;;
83707;SDS011;73692;49.562;11.144;2023-12-20T15:02:05;5.03;;;1.43;;
83707;SDS011;73692;49.562;11.144;2023-12-20T15:04:31;4.22;;;1.55;;
83707;SDS011;73692;49.562;11.144;2023-12-20T15:06:56;7.07;;;1.67;;
83707;SDS011;73692;49.562;11.144;2023-12-20T15:09:22;6.90;;;1.77;;
83707;SDS011;73692;49.562;11.144;2023-12-20T15:11:47;5.20;;;2.38;;
83707;SDS011;73692;49.562;11.144;2023-12-20T15:14:13;4.70;;;1.83;;
83707;SDS011;73692;49.562;11.144;2023-12-20T15:16:43;6.20;;;1.40;;
83707;SDS011;73692;49.562;11.144;2023-12-20T15:19:09;5.22;;;2.15;;
83707;SDS011;73692;49.562;11.144;2023-12-20T15:21:34;3.95;;;1.35;;
83707;SDS011;73692;49.562;11.144;2023-12-20T15:24:05;3.80;;;1.52;;
83707;SDS011;73692;49.562;11.144;2023-12-20T15:26:33;4.88;;;2.00;;
83707;SDS011;73692;49.562;11.144;2023-12-20T15:28:58;4.15;;;2.05;;
83707;SDS011;73692;49.562;11.144;2023-12-20T15:31:25;5.60;;;2.20;;
83707;SDS011;73692;49.562;11.144;2023-12-20T15:33:52;4.38;;;1.58;;
83707;SDS011;73692;49.562;11.144;2023-12-20T15:36:17;8.82;;;2.22;;
83707;SDS011;73692;49.562;11.144;2023-12-20T15:38:43;3.45;;;2.08;;
83707;SDS011;73692;49.562;11.144;2023-12-20T15:41:08;3.57;;;1.53;;
83707;SDS011;73692;49.562;11.144;2023-12-20T15:43:33;14.90;;;1.70;;
83707;SDS011;73692;49.562;11.144;2023-12-20T15:45:58;6.38;;;2.03;;
83707;SDS011;73692;49.562;11.144;2023-12-20T15:48:24;4.95;;;2.13;;
83707;SDS011;73692;49.562;11.144;2023-12-20T15:50:53;7.18;;;1.95;;
83707;SDS011;73692;49.562;11.144;2023-12-20T15:53:19;7.35;;;2.00;;
83707;SDS011;73692;49.562;11.144;2023-12-20T15:55:44;4.35;;;2.03;;
83707;SDS011;73692;49.562;11.144;2023-12-20T15:58:09;5.65;;;2.03;;
83707;SDS011;73692;49.562;11.144;2023-12-20T16:00:35;4.50;;;2.38;;
83707;SDS011;73692;49.562;11.144;2023-12-20T16:03:00;5.32;;;2.53;;
83707;SDS011;73692;49.562;11.144;2023-12-20T16:05:27;4.25;;;2.45;;
83707;SDS011;73692;49.562;11.144;2023-12-20T16:07:53;5.05;;;3.30;;
83707;SDS011;73692;49.562;11.144;2023-12-20T16:12:43;8.23;;;2.97;;
83707;SDS011;73692;49.562;11.144;2023-12-20T16:15:09;4.93;;;2.20;;
83707;SDS011;73692;49.562;11.144;2023-12-20T16:17:34;4.63;;;2.30;;
83707;SDS011;73692;49.562;11.144;2023-12-20T16:20:01;5.35;;;2.42;;
83707;SDS011;73692;49.562;11.144;2023-12-20T16:22:28;3.53;;;1.95;;
83707;SDS011;73692;49.562;11.144;2023-12-20T16:24:53;8.75;;;2.70;;
83707;SDS011;73692;49.562;11.144;2023-12-20T16:27:19;9.02;;;1.98;;
83707;SDS011;73692;49.562;11.144;2023-12-20T16:29:44;4.50;;;2.10;;
83707;SDS011;73692;49.562;11.144;2023-12-20T16:32:09;5.03;;;2.10;;
83707;SDS011;73692;49.562;11.144;2023-12-20T16:34:35;2.95;;;1.55;;
83707;SDS011;73692;49.562;11.144;2023-12-20T16:37:01;4.95;;;1.80;;
83707;SDS011;73692;49.562;11.144;2023-12-20T16:39:27;7.68;;;1.95;;
83707;SDS011;73692;49.562;11.144;2023-12-20T16:41:53;3.95;;;1.65;;
83707;SDS011;73692;49.562;11.144;2023-12-20T16:44:18;5.72;;;2.33;;
83707;SDS011;73692;49.562;11.144;2023-12-20T16:46:43;6.20;;;2.30;;
83707;SDS011;73692;49.562;11.144;2023-12-20T16:49:09;5.47;;;1.95;;
83707;SDS011;73692;49.562;11.144;2023-12-20T16:53:59;7.07;;;3.27;;
83707;SDS011;73692;49.562;11.144;2023-12-20T16:58:50;4.73;;;1.77;;
83707;SDS011;73692;49.562;11.144;2023-12-20T17:01:15;5.95;;;2.90;;
83707;SDS011;73692;49.562;11.144;2023-12-20T17:03:41;7.32;;;3.70;;
83707;SDS011;73692;49.562;11.144;2023-12-20T17:06:10;6.95;;;3.70;;
83707;SDS011;73692;49.562;11.144;2023-12-20T17:08:35;6.70;;;2.42;;
83707;SDS011;73692;49.562;11.144;2023-12-20T17:11:00;6.00;;;1.95;;
83707;SDS011;73692;49.562;11.144;2023-12-20T17:13:26;5.60;;;2.00;;
83707;SDS011;73692;49.562;11.144;2023-12-20T17:15:52;3.47;;;1.65;;
83707;SDS011;73692;49.562;11.144;2023-12-20T17:18:17;6.53;;;2.20;;
83707;SDS011;73692;49.562;11.144;2023-12-20T17:20:43;5.28;;;1.98;;
83707;SDS011;73692;49.562;11.144;2023-12-20T17:23:08;6.40;;;2.30;;
83707;SDS011;73692;49.562;11.144;2023-12-20T17:25:33;6.25;;;2.50;;
83707;SDS011;73692;49.562;11.144;2023-12-20T17:28:04;3.42;;;1.63;;
83707;SDS011;73692;49.562;11.144;2023-12-20T17:30:29;6.43;;;2.33;;
83707;SDS011;73692;49.562;11.144;2023-12-20T17:35:20;6.07;;;2.17;;
83707;SDS011;73692;49.562;11.144;2023-12-20T17:37:45;5.47;;;2.30;;
83707;SDS011;73692;49.562;11.144;2023-12-20T17:40:10;3.37;;;1.97;;